createdAt,value
2023-03-18T00:04:50.105Z,27
2023-03-18T00:09:50.180Z,27
2023-03-18T00:14:50.074Z,27
2023-03-18T00:19:50.072Z,27
2023-03-18T00:24:50.016Z,27
2023-03-18T00:29:50.090Z,27
2023-03-18T00:34:50.158Z,27
2023-03-18T00:39:49.944Z,27
2023-03-18T00:44:50.421Z,27
2023-03-18T00:49:50.115Z,27
2023-03-18T00:54:50.189Z,27
2023-03-18T00:59:49.989Z,27
2023-03-18T01:04:50.465Z,27
2023-03-18T01:09:49.929Z,27
2023-03-18T01:14:50.237Z,27
2023-03-18T01:19:49.943Z,27
2023-03-18T01:24:49.926Z,27
2023-03-18T01:29:49.851Z,27
2023-03-18T01:34:50.143Z,27
2023-03-18T01:39:50.265Z,27
2023-03-18T01:45:07.882Z,27
2023-03-18T01:49:50.110Z,27
2023-03-18T01:54:49.847Z,27
2023-03-18T01:59:49.924Z,27
2023-03-18T02:04:49.928Z,27
2023-03-18T02:09:50.068Z,27
2023-03-18T02:14:51.202Z,27
2023-03-18T02:19:49.981Z,27
2023-03-18T02:24:50.035Z,27
2023-03-18T02:29:49.954Z,27
2023-03-18T02:34:50.092Z,27
2023-03-18T02:39:49.830Z,27
2023-03-18T02:44:50.050Z,27
2023-03-18T02:49:50.353Z,27
2023-03-18T02:54:50.025Z,27
2023-03-18T02:59:50.260Z,27
2023-03-18T03:04:49.807Z,27
2023-03-18T03:09:50.216Z,27
2023-03-18T03:14:50.301Z,27
2023-03-18T03:19:50.234Z,27
2023-03-18T03:24:49.940Z,27
2023-03-18T03:29:50.124Z,27
2023-03-18T03:34:49.802Z,27
2023-03-18T03:39:49.948Z,27
2023-03-18T03:44:49.897Z,27
2023-03-18T03:49:49.806Z,27
2023-03-18T03:54:49.711Z,27
2023-03-18T03:59:49.940Z,27
2023-03-18T04:04:49.784Z,27
2023-03-18T04:09:50.165Z,27
2023-03-18T04:14:51.750Z,27
2023-03-18T04:19:49.982Z,27
2023-03-18T04:24:49.977Z,27
2023-03-18T04:29:49.832Z,27
2023-03-18T04:34:49.884Z,27
2023-03-18T04:39:50.008Z,27
2023-03-18T04:44:49.890Z,27
2023-03-18T04:49:49.706Z,27
2023-03-18T04:54:50.040Z,27
2023-03-18T04:59:49.899Z,27
2023-03-18T05:04:49.819Z,27
2023-03-18T05:09:50.221Z,27
2023-03-18T05:14:49.800Z,27
2023-03-18T05:19:49.810Z,27
2023-03-18T05:24:49.928Z,27
2023-03-18T05:29:50.013Z,27
2023-03-18T05:34:50.030Z,27
2023-03-18T05:39:50.027Z,27
2023-03-18T05:44:50.046Z,27
2023-03-18T05:49:49.902Z,27
2023-03-18T05:54:49.924Z,27
2023-03-18T05:59:49.848Z,27
2023-03-18T06:04:49.816Z,27
2023-03-18T06:09:50.157Z,27
2023-03-18T06:14:49.772Z,27
2023-03-18T06:19:49.821Z,27
2023-03-18T06:24:49.722Z,27
2023-03-18T06:29:49.790Z,27
2023-03-18T06:34:49.720Z,27
2023-03-18T06:39:50.046Z,27
2023-03-18T06:44:49.713Z,27
2023-03-18T06:49:49.912Z,27
2023-03-18T06:54:49.826Z,27
2023-03-18T06:59:49.644Z,27
2023-03-18T07:04:49.895Z,27
2023-03-18T07:09:49.636Z,27
2023-03-18T07:14:49.786Z,27
2023-03-18T07:19:50.029Z,27
2023-03-18T07:24:49.548Z,27
2023-03-18T07:29:50.123Z,27
2023-03-18T07:34:49.858Z,27
2023-03-18T07:39:50.165Z,27
2023-03-18T07:44:49.770Z,27
2023-03-18T07:49:50.493Z,27
2023-03-18T07:54:49.519Z,27
2023-03-18T07:59:49.602Z,27
2023-03-18T08:04:49.801Z,48
2023-03-18T08:09:49.653Z,48
2023-03-18T08:14:49.569Z,48
2023-03-18T08:19:49.638Z,48
2023-03-18T08:24:49.531Z,48
2023-03-18T08:29:49.816Z,48
2023-03-18T08:34:49.572Z,48
2023-03-18T08:39:49.717Z,48
2023-03-18T08:44:49.695Z,48
2023-03-18T08:49:51.374Z,48
2023-03-18T08:54:49.482Z,48
2023-03-18T08:59:49.604Z,45
2023-03-18T09:04:49.821Z,45
2023-03-18T09:09:49.709Z,45
2023-03-18T09:14:49.569Z,45
2023-03-18T09:19:49.807Z,88.1
2023-03-18T09:24:49.636Z,88.8
2023-03-18T09:29:49.914Z,89.9
2023-03-18T09:34:49.588Z,42
2023-03-18T09:39:49.454Z,42
2023-03-18T09:44:53.722Z,42
2023-03-18T09:49:49.544Z,42
2023-03-18T09:54:52.961Z,89.8
2023-03-18T09:59:52.057Z,88.5
2023-03-18T10:04:49.789Z,87.2
2023-03-18T10:09:49.533Z,88.6
2023-03-18T10:14:49.460Z,87.8
2023-03-18T10:19:49.800Z,87.1
2023-03-18T10:24:49.396Z,84
2023-03-18T10:29:49.648Z,82.8
2023-03-18T10:34:49.452Z,80.5
2023-03-18T10:39:50.794Z,80.2
2023-03-18T10:44:49.532Z,80.8
2023-03-18T10:50:01.109Z,80.1
2023-03-18T10:54:49.447Z,81
2023-03-18T10:59:49.596Z,83.2
2023-03-18T11:04:49.472Z,81.8
2023-03-18T11:09:49.652Z,81.7
2023-03-18T11:14:49.480Z,81.2
2023-03-18T11:19:49.511Z,81.8
2023-03-18T11:24:49.334Z,82.5
2023-03-18T11:29:49.596Z,82.6
2023-03-18T11:34:49.450Z,82.3
2023-03-18T11:39:54.606Z,81.7
2023-03-18T11:44:49.639Z,81.6
2023-03-18T11:49:49.490Z,82.6
2023-03-18T11:54:49.436Z,82
2023-03-18T11:59:49.477Z,81.2
2023-03-18T12:05:00.447Z,81
2023-03-18T12:09:49.519Z,77.4
2023-03-18T12:14:49.438Z,77.4
2023-03-18T12:19:49.455Z,78.4
2023-03-18T12:24:49.424Z,79.3
2023-03-18T12:29:49.468Z,78.4
2023-03-18T12:34:49.461Z,77.6
2023-03-18T12:39:49.557Z,78.4
2023-03-18T12:44:55.749Z,78
2023-03-18T12:49:49.637Z,76.1
2023-03-18T12:54:53.453Z,77.9
2023-03-18T12:59:53.715Z,76
2023-03-18T13:04:54.965Z,77
2023-03-18T13:09:49.780Z,73.8
2023-03-18T13:14:49.202Z,71.9
2023-03-18T13:19:49.419Z,72.5
2023-03-18T13:24:49.395Z,71.4
2023-03-18T13:29:49.310Z,72.5
2023-03-18T13:34:49.471Z,71.7
2023-03-18T13:40:02.112Z,71.9
2023-03-18T13:44:49.377Z,73.6
2023-03-18T13:49:57.386Z,74.6
2023-03-18T13:54:49.427Z,73
2023-03-18T13:59:49.282Z,73.7
2023-03-18T14:04:49.457Z,72.9
2023-03-18T14:09:49.446Z,71.9
2023-03-18T14:14:49.457Z,71.1
2023-03-18T14:19:49.487Z,70.8
2023-03-18T14:24:49.662Z,68.9
2023-03-18T14:29:49.686Z,69.6
2023-03-18T14:34:53.092Z,70.5
2023-03-18T14:39:49.186Z,71.1
2023-03-18T14:44:51.826Z,71
2023-03-18T14:49:49.398Z,69.3
2023-03-18T14:54:49.298Z,70.1
2023-03-18T14:59:49.155Z,69.4
2023-03-18T15:04:49.404Z,69.2
2023-03-18T15:09:49.194Z,69.5
2023-03-18T15:14:49.303Z,69.1
2023-03-18T15:19:49.480Z,68.1
2023-03-18T15:24:49.249Z,69.1
2023-03-18T15:29:49.207Z,68.5
2023-03-18T15:34:49.344Z,68.3
2023-03-18T15:39:49.235Z,68.4
2023-03-18T15:44:53.529Z,68.3
2023-03-18T15:49:49.507Z,67.6
2023-03-18T15:54:49.354Z,64.6
2023-03-18T15:59:49.182Z,62.5
2023-03-18T16:04:49.210Z,65.4
2023-03-18T16:09:49.622Z,68.7
2023-03-18T16:14:49.177Z,68.1
2023-03-18T16:19:49.219Z,68.5
2023-03-18T16:24:49.410Z,66.3
2023-03-18T16:29:49.225Z,65
2023-03-18T16:34:49.321Z,66.6
2023-03-18T16:39:49.146Z,68.4
2023-03-18T16:44:49.299Z,69.6
2023-03-18T16:49:49.197Z,71.2
2023-03-18T16:54:49.425Z,72.4
2023-03-18T16:59:48.975Z,72.7
2023-03-18T17:04:49.159Z,72.9
2023-03-18T17:09:49.656Z,73.2
2023-03-18T17:14:50.693Z,74.4
2023-03-18T17:19:49.244Z,73.2
2023-03-18T17:24:49.062Z,73.6
2023-03-18T17:29:49.136Z,73.2
2023-03-18T17:39:49.426Z,73.5
2023-03-18T17:44:49.077Z,73
2023-03-18T17:49:49.798Z,73.8
2023-03-18T17:54:49.005Z,72.8
2023-03-18T17:59:49.177Z,73.1
2023-03-18T18:04:49.093Z,73.3
2023-03-18T18:09:49.227Z,73.7
2023-03-18T18:14:49.159Z,74.3
2023-03-18T18:19:49.386Z,72.9
2023-03-18T18:24:49.009Z,72.5
2023-03-18T18:29:49.179Z,72.5
2023-03-18T18:34:49.016Z,72
2023-03-18T18:39:49.261Z,71.6
2023-03-18T18:44:49.245Z,71.7
2023-03-18T18:49:49.205Z,70.9
2023-03-18T18:54:49.369Z,71
2023-03-18T18:59:49.613Z,71.2
2023-03-18T19:04:49.085Z,72
2023-03-18T19:09:49.252Z,74.7
2023-03-18T19:14:49.268Z,77.9
2023-03-18T19:19:49.314Z,78
2023-03-18T19:24:49.140Z,78.1
2023-03-18T19:29:48.948Z,78
2023-03-18T19:34:48.924Z,77.8
2023-03-18T19:39:49.256Z,79.3
2023-03-18T19:44:49.200Z,33
2023-03-18T19:49:49.149Z,35
2023-03-18T19:54:48.874Z,35
2023-03-18T19:59:49.057Z,36
2023-03-18T20:04:48.939Z,36
2023-03-18T20:09:49.081Z,36
2023-03-18T20:14:49.624Z,39
2023-03-18T20:19:48.956Z,40
2023-03-18T20:24:49.073Z,40
2023-03-18T20:29:48.893Z,41
2023-03-18T20:34:48.898Z,41
2023-03-18T20:39:49.000Z,41
2023-03-18T20:44:48.920Z,41
2023-03-18T20:49:49.095Z,41
2023-03-18T20:54:48.963Z,41
2023-03-18T20:59:49.195Z,41
2023-03-18T21:04:49.157Z,41
2023-03-18T21:09:49.167Z,41
2023-03-18T21:14:48.919Z,41
2023-03-18T21:19:49.092Z,41
2023-03-18T21:24:49.173Z,42
2023-03-18T21:29:49.979Z,42
2023-03-18T21:34:48.854Z,42
2023-03-18T21:39:49.146Z,42
2023-03-18T21:44:49.089Z,42
2023-03-18T21:49:48.941Z,42
2023-03-18T21:54:48.946Z,42
2023-03-18T21:59:48.894Z,42
2023-03-18T22:04:49.019Z,41
2023-03-18T22:09:48.974Z,41
2023-03-18T22:14:49.139Z,41
2023-03-18T22:19:49.045Z,40
2023-03-18T22:24:49.752Z,40
2023-03-18T22:29:49.294Z,40
2023-03-18T22:34:49.143Z,40
2023-03-18T22:39:48.843Z,40
2023-03-18T22:44:49.266Z,40
2023-03-18T22:49:48.939Z,40
2023-03-18T22:54:51.110Z,40
2023-03-18T22:59:49.082Z,40
2023-03-18T23:04:48.758Z,40
2023-03-18T23:09:56.445Z,40
2023-03-18T23:14:48.949Z,40
2023-03-18T23:19:49.620Z,40
2023-03-18T23:24:49.148Z,40
2023-03-18T23:29:48.995Z,40
2023-03-18T23:34:49.731Z,40
2023-03-18T23:39:48.877Z,40
2023-03-18T23:44:49.144Z,40
2023-03-18T23:49:49.087Z,40
2023-03-18T23:54:48.868Z,40
2023-03-18T23:59:49.143Z,40
